createdAt,value
2019-01-23T00:01:15.145Z,72.10
2019-01-23T00:03:44.637Z,71.94
2019-01-23T00:06:14.142Z,71.68
2019-01-23T00:08:43.679Z,71.38
2019-01-23T00:11:13.177Z,71.73
2019-01-23T00:13:42.703Z,71.78
2019-01-23T00:16:12.245Z,73.05
2019-01-23T00:18:41.763Z,73.02
2019-01-23T00:21:11.255Z,73.83
2019-01-23T00:23:40.977Z,74.24
2019-01-23T00:26:10.462Z,73.83
2019-01-23T00:28:42.419Z,73.13
2019-01-23T00:31:11.199Z,72.80
2019-01-23T00:33:40.876Z,73.10
2019-01-23T00:36:10.367Z,73.66
2019-01-23T00:38:39.908Z,73.54
2019-01-23T00:41:09.437Z,74.08
2019-01-23T00:43:38.933Z,74.09
2019-01-23T00:46:08.684Z,74.23
2019-01-23T00:48:38.178Z,74.02
2019-01-23T00:51:07.713Z,73.95
2019-01-23T00:53:37.219Z,74.19
2019-01-23T00:56:06.746Z,74.52
2019-01-23T00:58:36.250Z,74.10
2019-01-23T01:01:07.633Z,74.95
2019-01-23T01:03:37.712Z,75.55
2019-01-23T01:06:07.246Z,75.31
2019-01-23T01:08:36.834Z,74.26
2019-01-23T01:11:06.326Z,74.48
2019-01-23T01:13:35.802Z,74.61
2019-01-23T01:16:05.722Z,74.87
2019-01-23T01:18:35.229Z,75.28
2019-01-23T01:21:04.792Z,75.38
2019-01-23T01:23:34.282Z,75.31
2019-01-23T01:26:03.785Z,75.20
2019-01-23T01:28:33.263Z,74.98
2019-01-23T01:31:03.304Z,75.61
2019-01-23T01:33:34.015Z,75.14
2019-01-23T01:36:04.145Z,75.15
2019-01-23T01:38:33.681Z,76.42
2019-01-23T01:41:03.185Z,75.99
2019-01-23T01:43:32.694Z,76.21
2019-01-23T01:46:02.203Z,76.00
2019-01-23T01:48:32.147Z,75.80
2019-01-23T01:51:01.600Z,75.78
2019-01-23T01:53:31.467Z,75.91
2019-01-23T01:56:01.041Z,75.37
2019-01-23T01:58:30.505Z,75.44
2019-01-23T02:01:00.037Z,76.20
2019-01-23T02:03:30.371Z,76.34
2019-01-23T02:06:00.222Z,76.10
2019-01-23T02:08:29.762Z,76.53
2019-01-23T02:10:59.237Z,75.57
2019-01-23T02:13:28.776Z,76.29
2019-01-23T02:15:58.881Z,75.73
2019-01-23T02:18:28.347Z,75.66
2019-01-23T02:20:58.368Z,75.39
2019-01-23T02:23:27.907Z,75.91
2019-01-23T02:25:57.487Z,76.60
2019-01-23T02:28:26.967Z,75.77
2019-01-23T02:30:56.481Z,75.10
2019-01-23T02:33:25.960Z,75.27
2019-01-23T02:35:55.440Z,75.00
2019-01-23T02:38:25.002Z,74.59
2019-01-23T02:40:54.507Z,74.87
2019-01-23T02:43:24.001Z,74.69
2019-01-23T02:45:53.535Z,74.88
2019-01-23T02:48:23.050Z,75.50
2019-01-23T02:50:52.523Z,74.54
2019-01-23T02:53:22.091Z,75.20
2019-01-23T02:55:51.575Z,75.40
2019-01-23T02:58:21.043Z,76.47
2019-01-23T03:00:50.684Z,76.56
2019-01-23T03:03:20.168Z,77.24
2019-01-23T03:05:49.702Z,77.23
2019-01-23T03:08:19.193Z,77.19
2019-01-23T03:10:48.682Z,77.45
2019-01-23T03:13:18.197Z,77.90
2019-01-23T03:15:47.711Z,78.24
2019-01-23T03:18:17.613Z,77.75
2019-01-23T03:20:47.082Z,77.29
2019-01-23T03:23:17.995Z,77.48
2019-01-23T03:25:47.477Z,76.92
2019-01-23T03:28:16.989Z,76.69
2019-01-23T03:30:47.399Z,76.34
2019-01-23T03:33:16.892Z,75.26
2019-01-23T03:35:46.384Z,75.44
2019-01-23T03:38:15.886Z,74.45
2019-01-23T03:40:45.388Z,74.36
2019-01-23T03:43:14.923Z,75.09
2019-01-23T03:45:44.670Z,75.30
2019-01-23T03:48:14.167Z,74.44
2019-01-23T03:50:43.677Z,74.79
2019-01-23T03:53:13.234Z,75.33
2019-01-23T03:55:42.778Z,75.40
2019-01-23T03:58:12.298Z,76.34
2019-01-23T04:00:41.876Z,76.48
2019-01-23T04:03:11.377Z,75.74
2019-01-23T04:05:40.886Z,76.01
2019-01-23T04:08:10.674Z,76.06
2019-01-23T04:10:40.190Z,74.63
2019-01-23T04:13:09.723Z,74.51
2019-01-23T04:15:39.320Z,74.35
2019-01-23T04:18:08.822Z,73.86
2019-01-23T04:20:38.302Z,74.77
2019-01-23T04:23:07.822Z,74.88
2019-01-23T04:25:37.346Z,74.61
2019-01-23T04:28:06.911Z,74.23
2019-01-23T04:30:36.900Z,74.30
2019-01-23T04:33:06.427Z,74.80
2019-01-23T04:35:35.907Z,74.45
2019-01-23T04:38:05.488Z,75.91
2019-01-23T04:40:34.972Z,75.08
2019-01-23T04:43:04.550Z,75.17
2019-01-23T04:45:34.051Z,74.67
2019-01-23T04:48:03.564Z,75.67
2019-01-23T04:50:34.673Z,76.03
2019-01-23T04:53:12.499Z,76.63
2019-01-23T04:55:42.005Z,76.44
2019-01-23T04:58:11.507Z,76.48
2019-01-23T05:00:40.987Z,76.29
2019-01-23T05:03:10.474Z,76.41
2019-01-23T05:05:39.975Z,75.59
2019-01-23T05:08:09.996Z,76.71
2019-01-23T05:10:39.490Z,77.20
2019-01-23T05:13:09.069Z,76.97
2019-01-23T05:15:39.043Z,76.71
2019-01-23T05:18:08.541Z,76.85
2019-01-23T05:20:38.044Z,76.53
2019-01-23T05:23:07.604Z,76.65
2019-01-23T05:25:37.115Z,78.34
2019-01-23T05:28:06.653Z,77.85
2019-01-23T05:30:36.211Z,76.59
2019-01-23T05:33:05.677Z,76.27
2019-01-23T05:35:35.179Z,76.03
2019-01-23T05:38:05.120Z,75.79
2019-01-23T05:40:34.626Z,75.72
2019-01-23T05:43:04.640Z,76.33
2019-01-23T05:45:34.153Z,76.41
2019-01-23T05:48:03.628Z,76.45
2019-01-23T05:50:33.119Z,76.12
2019-01-23T05:53:02.668Z,76.17
2019-01-23T05:55:32.133Z,77.15
2019-01-23T05:58:01.643Z,77.53
2019-01-23T06:00:31.203Z,75.97
2019-01-23T06:03:00.713Z,76.64
2019-01-23T06:05:30.259Z,76.59
2019-01-23T06:07:59.801Z,76.41
2019-01-23T06:10:48.846Z,75.99
2019-01-23T06:13:18.387Z,76.41
2019-01-23T06:15:47.874Z,75.52
2019-01-23T06:18:17.378Z,76.22
2019-01-23T06:20:46.961Z,76.21
2019-01-23T06:23:17.514Z,77.51
2019-01-23T06:25:48.491Z,76.91
2019-01-23T06:28:18.014Z,76.35
2019-01-23T06:30:47.487Z,76.29
2019-01-23T06:33:17.082Z,76.40
2019-01-23T06:35:46.577Z,76.45
2019-01-23T06:38:16.391Z,76.51
2019-01-23T06:40:45.899Z,76.08
2019-01-23T06:43:15.495Z,76.04
2019-01-23T06:45:45.324Z,76.02
2019-01-23T06:48:14.870Z,76.02
2019-01-23T06:50:44.405Z,75.69
2019-01-23T06:53:14.354Z,75.33
2019-01-23T06:55:43.983Z,76.63
2019-01-23T06:58:13.546Z,76.41
2019-01-23T07:00:43.061Z,75.30
2019-01-23T07:03:12.643Z,75.50
2019-01-23T07:05:42.377Z,74.18
2019-01-23T07:08:11.945Z,74.40
2019-01-23T07:10:41.423Z,74.49
2019-01-23T07:13:10.941Z,74.04
2019-01-23T07:15:40.437Z,73.30
2019-01-23T07:18:09.963Z,72.53
2019-01-23T07:20:39.499Z,72.92
2019-01-23T07:23:08.967Z,73.62
2019-01-23T07:25:38.472Z,73.51
2019-01-23T07:28:08.206Z,73.35
2019-01-23T07:30:39.141Z,73.80
2019-01-23T07:33:09.091Z,72.98
2019-01-23T07:35:38.616Z,72.58
2019-01-23T07:38:08.158Z,72.54
2019-01-23T07:40:37.685Z,72.28
2019-01-23T07:43:07.217Z,71.35
2019-01-23T07:45:36.724Z,71.16
2019-01-23T07:48:06.234Z,70.17
2019-01-23T07:50:36.264Z,70.58
2019-01-23T07:53:06.179Z,71.21
2019-01-23T07:55:35.689Z,71.56
2019-01-23T07:58:05.280Z,72.17
2019-01-23T08:00:34.752Z,72.66
2019-01-23T08:03:04.311Z,72.42
2019-01-23T08:05:33.820Z,71.60
2019-01-23T08:08:03.388Z,70.54
2019-01-23T08:10:32.920Z,69.10
2019-01-23T08:13:02.706Z,69.00
2019-01-23T08:15:34.835Z,68.29
2019-01-23T08:18:05.088Z,67.61
2019-01-23T08:20:35.971Z,68.64
2019-01-23T08:23:05.601Z,67.81
2019-01-23T08:25:35.107Z,67.82
2019-01-23T08:28:05.619Z,67.02
2019-01-23T08:30:38.895Z,67.12
2019-01-23T08:33:06.385Z,66.95
2019-01-23T08:35:36.166Z,66.02
2019-01-23T08:38:07.220Z,66.00
2019-01-23T08:40:37.009Z,65.51
2019-01-23T08:43:06.973Z,64.54
2019-01-23T08:45:36.947Z,65.21
2019-01-23T08:48:06.491Z,66.26
2019-01-23T08:50:39.824Z,66.77
2019-01-23T08:53:09.392Z,67.79
2019-01-23T08:55:38.953Z,66.37
2019-01-23T08:58:08.842Z,68.80
2019-01-23T09:00:38.316Z,69.40
2019-01-23T09:03:08.007Z,69.36
2019-01-23T09:05:37.580Z,70.19
2019-01-23T09:08:07.581Z,70.28
2019-01-23T09:10:37.068Z,70.18
2019-01-23T09:13:06.601Z,69.75
2019-01-23T09:15:36.096Z,71.20
2019-01-23T09:18:07.878Z,71.43
2019-01-23T09:20:37.487Z,71.83
2019-01-23T09:23:06.998Z,71.21
2019-01-23T09:25:36.469Z,70.73
2019-01-23T09:28:06.016Z,69.77
2019-01-23T09:30:43.392Z,69.22
2019-01-23T09:33:38.484Z,69.13
2019-01-23T09:36:33.047Z,69.77
2019-01-23T09:39:27.454Z,69.79
2019-01-23T09:42:10.816Z,69.53
2019-01-23T09:44:59.405Z,69.68
2019-01-23T09:47:42.302Z,68.95
2019-01-23T09:50:37.396Z,68.82
2019-01-23T09:53:32.301Z,69.09
2019-01-23T09:56:01.870Z,71.08
2019-01-23T09:58:31.376Z,71.14
2019-01-23T10:01:01.016Z,70.30
2019-01-23T10:03:30.532Z,70.60
2019-01-23T10:06:00.090Z,70.33
2019-01-23T10:08:29.586Z,70.43
2019-01-23T10:10:59.131Z,70.10
2019-01-23T10:13:28.628Z,70.42
2019-01-23T10:15:58.271Z,70.62
2019-01-23T10:18:28.314Z,70.23
2019-01-23T10:20:57.826Z,70.79
2019-01-23T10:23:27.278Z,69.04
2019-01-23T10:25:56.823Z,68.53
2019-01-23T10:28:26.920Z,68.43
2019-01-23T10:30:56.570Z,66.87
2019-01-23T10:33:26.204Z,67.05
2019-01-23T10:35:55.734Z,66.92
2019-01-23T10:38:25.248Z,67.10
2019-01-23T10:40:55.014Z,67.36
2019-01-23T10:43:24.517Z,69.30
2019-01-23T10:45:53.983Z,69.87
2019-01-23T10:48:23.543Z,70.09
2019-01-23T10:50:53.055Z,69.43
2019-01-23T10:53:22.570Z,69.16
2019-01-23T10:55:52.065Z,69.78
2019-01-23T10:58:21.547Z,70.61
2019-01-23T11:00:51.050Z,70.05
2019-01-23T11:03:20.692Z,70.05
2019-01-23T11:05:50.198Z,68.98
2019-01-23T11:08:19.679Z,67.55
2019-01-23T11:10:49.209Z,66.69
2019-01-23T11:13:18.722Z,65.79
2019-01-23T11:15:48.268Z,67.06
2019-01-23T11:18:17.810Z,68.75
2019-01-23T11:20:47.406Z,68.06
2019-01-23T11:23:16.996Z,67.47
2019-01-23T11:25:46.884Z,67.83
2019-01-23T11:28:16.372Z,67.18
2019-01-23T11:30:45.872Z,67.21
2019-01-23T11:33:15.401Z,67.07
2019-01-23T11:35:45.326Z,67.53
2019-01-23T11:38:14.904Z,69.06
2019-01-23T11:40:44.540Z,67.66
2019-01-23T11:43:14.048Z,66.45
2019-01-23T11:45:43.619Z,66.26
2019-01-23T11:48:13.462Z,65.67
2019-01-23T11:50:43.226Z,64.12
2019-01-23T11:53:12.772Z,66.95
2019-01-23T11:55:42.322Z,66.90
2019-01-23T11:58:11.781Z,64.92
2019-01-23T12:00:41.324Z,64.26
2019-01-23T12:03:10.877Z,63.82
2019-01-23T12:05:40.404Z,64.30
2019-01-23T12:08:10.282Z,63.57
2019-01-23T12:10:40.122Z,62.00
2019-01-23T12:13:09.614Z,62.75
2019-01-23T12:15:40.932Z,61.66
2019-01-23T12:18:10.369Z,60.07
2019-01-23T12:20:40.221Z,61.17
2019-01-23T12:23:09.689Z,61.09
2019-01-23T12:25:39.207Z,61.62
2019-01-23T12:28:08.687Z,63.34
2019-01-23T12:30:38.707Z,62.71
2019-01-23T12:33:08.444Z,61.55
2019-01-23T12:35:37.984Z,61.61
2019-01-23T12:38:07.470Z,62.17
2019-01-23T12:40:37.009Z,60.45
2019-01-23T12:43:06.526Z,60.01
2019-01-23T12:45:36.018Z,59.82
2019-01-23T12:48:05.658Z,59.31
2019-01-23T12:50:35.285Z,59.19
2019-01-23T12:53:04.841Z,58.90
2019-01-23T12:55:34.547Z,58.78
2019-01-23T12:58:04.087Z,59.69
2019-01-23T13:00:33.611Z,60.07
2019-01-23T13:03:03.211Z,59.87
2019-01-23T13:05:32.816Z,59.54
2019-01-23T13:08:02.261Z,60.31
2019-01-23T13:10:31.777Z,61.79
2019-01-23T13:13:01.339Z,61.15
2019-01-23T13:15:31.039Z,61.03
2019-01-23T13:18:00.806Z,59.94
2019-01-23T13:20:30.296Z,59.58
2019-01-23T13:22:59.864Z,58.67
2019-01-23T13:25:30.460Z,57.65
2019-01-23T13:28:02.466Z,57.28
2019-01-23T13:30:31.933Z,57.18
2019-01-23T13:33:02.193Z,56.29
2019-01-23T13:35:36.133Z,57.33
2019-01-23T13:38:10.375Z,57.97
2019-01-23T13:40:39.948Z,58.21
2019-01-23T13:43:09.515Z,57.91
2019-01-23T13:45:39.115Z,57.11
2019-01-23T13:48:09.381Z,57.60
2019-01-23T13:50:38.886Z,58.82
2019-01-23T13:53:09.069Z,58.59
2019-01-23T13:55:38.535Z,59.83
2019-01-23T13:58:08.190Z,60.39
2019-01-23T14:00:42.823Z,61.20
2019-01-23T14:03:12.388Z,60.96
2019-01-23T14:05:41.890Z,61.72
2019-01-23T14:08:11.936Z,61.18
2019-01-23T14:10:41.457Z,61.69
2019-01-23T14:13:10.920Z,61.32
2019-01-23T14:15:41.400Z,61.65
2019-01-23T14:18:10.893Z,61.09
2019-01-23T14:20:40.443Z,60.62
2019-01-23T14:23:09.968Z,61.40
2019-01-23T14:25:39.488Z,62.10
2019-01-23T14:28:09.057Z,62.70
2019-01-23T14:30:44.935Z,62.39
2019-01-23T14:33:14.844Z,61.61
2019-01-23T14:35:44.358Z,62.09
2019-01-23T14:38:14.010Z,63.05
2019-01-23T14:40:43.493Z,61.93
2019-01-23T14:43:12.973Z,61.44
2019-01-23T14:45:42.495Z,61.15
2019-01-23T14:48:11.980Z,61.52
2019-01-23T14:50:41.475Z,61.97
2019-01-23T14:53:11.052Z,61.40
2019-01-23T14:55:40.545Z,60.96
2019-01-23T14:58:10.094Z,61.57
2019-01-23T15:00:39.720Z,61.79
2019-01-23T15:03:09.229Z,61.39
2019-01-23T15:05:38.716Z,61.06
2019-01-23T15:08:08.313Z,62.38
2019-01-23T15:10:37.820Z,62.45
2019-01-23T15:13:07.743Z,62.73
2019-01-23T15:15:37.662Z,62.27
2019-01-23T15:18:07.475Z,61.87
2019-01-23T15:20:38.909Z,61.16
2019-01-23T15:23:08.435Z,61.96
2019-01-23T15:25:37.949Z,61.62
2019-01-23T15:28:07.506Z,61.61
2019-01-23T15:30:37.112Z,62.26
2019-01-23T15:33:06.593Z,62.78
2019-01-23T15:35:36.171Z,62.96
2019-01-23T15:38:05.977Z,62.75
2019-01-23T15:40:36.573Z,63.49
2019-01-23T15:43:06.172Z,63.59
2019-01-23T15:45:35.877Z,63.83
2019-01-23T15:48:05.514Z,64.27
2019-01-23T15:50:36.826Z,64.15
2019-01-23T15:53:07.028Z,64.36
2019-01-23T15:55:36.600Z,64.05
2019-01-23T15:58:06.161Z,64.47
2019-01-23T16:00:36.790Z,64.68
2019-01-23T16:03:06.355Z,65.51
2019-01-23T16:05:36.308Z,64.71
2019-01-23T16:08:06.334Z,64.44
2019-01-23T16:10:35.848Z,64.75
2019-01-23T16:13:05.406Z,64.94
2019-01-23T16:15:35.026Z,64.77
2019-01-23T16:18:04.586Z,64.49
2019-01-23T16:20:34.090Z,65.02
2019-01-23T16:23:04.052Z,64.37
2019-01-23T16:25:34.025Z,64.60
2019-01-23T16:28:03.488Z,64.04
2019-01-23T16:30:36.584Z,64.13
2019-01-23T16:33:06.808Z,64.37
2019-01-23T16:35:38.798Z,64.45
2019-01-23T16:38:09.410Z,64.19
2019-01-23T16:40:38.888Z,65.05
2019-01-23T16:43:08.451Z,64.94
2019-01-23T16:45:37.946Z,65.47
2019-01-23T16:48:07.589Z,65.99
2019-01-23T16:50:37.181Z,66.34
2019-01-23T16:53:06.731Z,66.35
2019-01-23T16:55:36.375Z,66.25
2019-01-23T16:58:07.515Z,66.48
2019-01-23T17:00:37.434Z,65.83
2019-01-23T17:03:07.650Z,65.86
2019-01-23T17:05:38.906Z,66.10
2019-01-23T17:08:09.642Z,66.46
2019-01-23T17:10:40.883Z,65.83
2019-01-23T17:13:11.309Z,65.96
2019-01-23T17:15:41.607Z,65.87
2019-01-23T17:18:11.161Z,66.29
2019-01-23T17:20:44.389Z,66.12
2019-01-23T17:23:13.938Z,66.57
2019-01-23T17:25:44.139Z,66.37
2019-01-23T17:28:14.823Z,66.45
2019-01-23T17:30:44.699Z,66.81
2019-01-23T17:33:14.188Z,66.91
2019-01-23T17:35:44.122Z,67.11
2019-01-23T17:38:13.646Z,66.77
2019-01-23T17:40:43.151Z,67.00
2019-01-23T17:43:13.933Z,66.48
2019-01-23T17:45:43.530Z,65.88
2019-01-23T17:48:17.731Z,65.95
2019-01-23T17:50:47.367Z,66.78
2019-01-23T17:53:17.453Z,67.33
2019-01-23T17:55:46.968Z,66.66
2019-01-23T17:58:16.888Z,66.24
2019-01-23T18:00:50.680Z,65.87
2019-01-23T18:03:20.289Z,65.47
2019-01-23T18:05:51.237Z,65.75
2019-01-23T18:08:21.642Z,66.05
2019-01-23T18:10:51.176Z,66.05
2019-01-23T18:13:20.686Z,65.82
2019-01-23T18:15:50.250Z,65.97
2019-01-23T18:18:20.385Z,66.05
2019-01-23T18:20:49.851Z,67.35
2019-01-23T18:23:19.370Z,67.77
2019-01-23T18:25:48.853Z,67.63
2019-01-23T18:28:18.355Z,67.50
2019-01-23T18:30:52.733Z,67.52
2019-01-23T18:33:32.147Z,67.31
2019-01-23T18:36:35.178Z,67.12
2019-01-23T18:39:12.064Z,67.18
2019-01-23T18:41:48.957Z,68.02
2019-01-23T18:44:38.840Z,67.23
2019-01-23T18:47:37.472Z,67.39
2019-01-23T18:50:30.895Z,67.27
2019-01-23T18:53:00.915Z,67.87
2019-01-23T18:55:30.417Z,68.05
2019-01-23T18:58:00.428Z,67.62
2019-01-23T19:00:30.029Z,67.62
2019-01-23T19:02:59.521Z,67.37
2019-01-23T19:05:29.789Z,67.12
2019-01-23T19:07:59.737Z,67.53
2019-01-23T19:10:29.519Z,67.23
2019-01-23T19:12:59.409Z,67.01
2019-01-23T19:15:29.533Z,67.62
2019-01-23T19:17:59.210Z,67.25
2019-01-23T19:20:29.220Z,66.95
2019-01-23T19:22:58.758Z,67.44
2019-01-23T19:25:28.437Z,67.51
2019-01-23T19:27:58.430Z,67.12
2019-01-23T19:30:28.355Z,67.95
2019-01-23T19:32:57.836Z,68.01
2019-01-23T19:35:27.415Z,68.00
2019-01-23T19:37:56.962Z,68.32
2019-01-23T19:40:26.470Z,68.87
2019-01-23T19:42:56.153Z,69.27
2019-01-23T19:45:25.797Z,69.35
2019-01-23T19:47:55.279Z,69.92
2019-01-23T19:50:24.788Z,70.82
2019-01-23T19:52:54.397Z,71.79
2019-01-23T19:55:23.957Z,71.57
2019-01-23T19:57:53.527Z,72.07
2019-01-23T20:00:23.582Z,72.26
2019-01-23T20:02:53.109Z,71.92
2019-01-23T20:05:25.978Z,71.62
2019-01-23T20:07:56.173Z,72.21
2019-01-23T20:10:26.215Z,73.53
2019-01-23T20:12:55.829Z,73.39
2019-01-23T20:15:25.475Z,72.83
2019-01-23T20:17:56.614Z,73.81
2019-01-23T20:20:26.122Z,73.58
2019-01-23T20:22:55.718Z,73.49
2019-01-23T20:25:27.135Z,73.70
2019-01-23T20:27:57.275Z,73.65
2019-01-23T20:30:32.047Z,73.86
2019-01-23T20:33:01.635Z,73.54
2019-01-23T20:35:31.244Z,73.65
2019-01-23T20:38:02.098Z,73.32
2019-01-23T20:40:31.670Z,73.70
2019-01-23T20:43:01.188Z,72.70
2019-01-23T20:45:30.847Z,73.16
2019-01-23T20:48:00.374Z,73.63
2019-01-23T20:50:31.802Z,73.32
2019-01-23T20:53:01.717Z,72.59
2019-01-23T20:55:31.361Z,72.31
2019-01-23T20:58:00.923Z,74.36
2019-01-23T21:00:34.340Z,74.01
2019-01-23T21:03:04.330Z,74.02
2019-01-23T21:05:33.905Z,75.49
2019-01-23T21:08:03.869Z,75.65
2019-01-23T21:10:33.370Z,75.40
2019-01-23T21:13:02.997Z,74.54
2019-01-23T21:15:32.602Z,74.31
2019-01-23T21:18:02.109Z,74.93
2019-01-23T21:20:32.346Z,74.45
2019-01-23T21:23:01.859Z,75.41
2019-01-23T21:25:31.382Z,75.82
2019-01-23T21:28:01.000Z,75.38
2019-01-23T21:30:30.606Z,75.50
2019-01-23T21:33:00.114Z,74.12
2019-01-23T21:35:29.613Z,74.97
2019-01-23T21:37:59.151Z,74.35
2019-01-23T21:40:31.462Z,73.48
2019-01-23T21:43:02.805Z,74.26
2019-01-23T21:45:33.122Z,74.86
2019-01-23T21:48:02.644Z,74.87
2019-01-23T21:50:32.163Z,74.97
2019-01-23T21:53:01.681Z,73.74
2019-01-23T21:55:31.179Z,73.87
2019-01-23T21:58:00.690Z,74.53
2019-01-23T22:00:37.927Z,74.24
2019-01-23T22:03:10.248Z,74.20
2019-01-23T22:05:39.951Z,73.50
2019-01-23T22:08:09.816Z,72.85
2019-01-23T22:10:39.413Z,73.29
2019-01-23T22:13:08.945Z,73.38
2019-01-23T22:15:38.954Z,72.45
2019-01-23T22:18:08.642Z,72.06
2019-01-23T22:20:38.289Z,72.85
2019-01-23T22:23:10.661Z,71.92
2019-01-23T22:25:40.139Z,72.13
2019-01-23T22:28:09.765Z,72.80
2019-01-23T22:30:58.714Z,74.06
2019-01-23T22:33:28.200Z,73.95
2019-01-23T22:35:57.667Z,72.54
2019-01-23T22:38:27.241Z,72.50
2019-01-23T22:40:56.757Z,71.99
2019-01-23T22:43:26.238Z,71.54
2019-01-23T22:45:55.728Z,71.50
2019-01-23T22:48:25.218Z,73.33
2019-01-23T22:50:54.881Z,73.70
2019-01-23T22:53:25.968Z,72.49
2019-01-23T22:55:55.476Z,73.07
2019-01-23T22:58:24.968Z,74.49
2019-01-23T23:01:01.960Z,75.42
2019-01-23T23:03:31.796Z,74.50
2019-01-23T23:06:01.255Z,74.87
2019-01-23T23:08:31.332Z,74.65
2019-01-23T23:11:20.153Z,73.57
2019-01-23T23:13:49.696Z,72.89
2019-01-23T23:16:19.278Z,72.38
2019-01-23T23:18:48.779Z,72.54
2019-01-23T23:21:18.713Z,72.96
2019-01-23T23:23:48.181Z,72.79
2019-01-23T23:26:17.689Z,73.32
2019-01-23T23:28:47.378Z,72.82
2019-01-23T23:31:16.871Z,72.60
2019-01-23T23:33:46.384Z,72.67
2019-01-23T23:36:15.993Z,72.66
2019-01-23T23:38:45.492Z,71.85
2019-01-23T23:41:14.969Z,72.03
2019-01-23T23:43:44.501Z,72.01
2019-01-23T23:46:13.999Z,72.46
2019-01-23T23:48:43.552Z,71.89
2019-01-23T23:51:13.147Z,71.73
2019-01-23T23:53:42.653Z,71.63
2019-01-23T23:56:12.180Z,72.16
2019-01-23T23:58:41.694Z,72.21
